Flight Track Log - Related Links

Times and Time Zones

All times are in EDT time to prevent confusion due to time zone crossing. See the SWA868 flight status page for this flight to view local times or setup timezone preferences in your user account.

Time Position Orientation Groundspeed Altitude Reporting Facility
EDT Latitude Longitude Course Direction KTS MPH feet Rate Location/Type
Wed 09:20:28 PM 27.9667 -82.5500 204° Southwest 165 190 800  Level Tampa TRACON
Wed 09:21:16 PM 27.9333 -82.5667 204° Southwest 195 224 2,000 2,150 Climbing Tampa TRACON
Wed 09:22:28 PM 27.9333 -82.6500 270° West 237 273 5,100 2,536 Climbing Tampa TRACON
Wed 09:24:04 PM 28.0392 -82.6481 North 276 318 9,100 2,500 Climbing Jacksonville Center
Wed 09:25:04 PM 28.1267 -82.6431 North 293 337 11,600 1,450 Climbing Jacksonville Center
Wed 09:26:04 PM 28.2247 -82.6311 North 321 369 12,000 650 Climbing Jacksonville Center
Wed 09:27:04 PM 28.3228 -82.6214 North 339 390 12,900 1,950 Climbing Jacksonville Center
Wed 09:28:04 PM 28.4231 -82.6117 North 352 405 15,900 2,900 Climbing Jacksonville Center
Wed 09:29:04 PM 28.5272 -82.6019 North 362 417 18,700 2,600 Climbing Jacksonville Center
Wed 09:30:04 PM 28.6358 -82.5944 North 374 430 21,100 2,100 Climbing Jacksonville Center
Wed 09:31:04 PM 28.7486 -82.5989 358° North 386 444 22,900 1,850 Climbing Jacksonville Center
Wed 09:32:04 PM 28.8656 -82.6175 352° North 399 459 24,800 1,800 Climbing Jacksonville Center
Wed 09:33:04 PM 28.9867 -82.6314 354° North 423 487 26,500 1,700 Climbing Jacksonville Center
Wed 09:34:04 PM 29.1119 -82.6503 352° North 437 503 28,200 1,550 Climbing Jacksonville Center
Wed 09:35:04 PM 29.2392 -82.6689 353° North 450 518 29,600 1,450 Climbing Jacksonville Center
Wed 09:36:04 PM 29.3708 -82.6875 353° North 464 534 31,100 1,650 Climbing Jacksonville Center
Wed 09:37:04 PM 29.5189 -82.6944 358° North 478 550 32,900 1,650 Climbing Jacksonville Center
Wed 09:38:04 PM 29.6506 -82.6919 North 478 550 34,400 1,650 Climbing Jacksonville Center
Wed 09:39:04 PM 29.7842 -82.6939 359° North 472 543 36,200 1,300 Climbing Jacksonville Center
Wed 09:40:04 PM 29.9136 -82.6936 360° North 472 543 37,000 1,000 Climbing Jacksonville Center
Wed 09:41:04 PM 30.0428 -82.6647 11° North 459 528 38,200 1,000 Climbing Jacksonville Center
Wed 09:42:04 PM 30.1514 -82.6283 16° North 459 528 39,000 400 Climbing Jacksonville Center
Wed 09:43:04 PM 30.2725 -82.5775 20° North 454 522 39,000  Level Jacksonville Center
Wed 09:44:04 PM 30.3933 -82.5289 19° North 459 528 39,000  Level Jacksonville Center
Wed 09:45:04 PM 30.5142 -82.4731 22° Northeast 459 528 39,000  Level Jacksonville Center
Wed 09:46:04 PM 30.6372 -82.4119 23° Northeast 470 541 39,000  Level Jacksonville Center
Wed 09:47:04 PM 30.7561 -82.3511 24° Northeast 470 541 39,000  Level Jacksonville Center
Wed 09:48:04 PM 30.8747 -82.2922 23° Northeast 470 541 39,000  Level Jacksonville Center
Wed 09:49:04 PM 30.9956 -82.2308 24° Northeast 465 535 39,000  Level Jacksonville Center
Wed 09:50:04 PM 31.1142 -82.1719 23° Northeast 460 529 39,000  Level Jacksonville Center
Wed 09:51:04 PM 31.2350 -82.1078 24° Northeast 465 535 39,000  Level Jacksonville Center
Wed 09:52:04 PM 31.3600 -82.0433 24° Northeast 465 535 39,000  Level Jacksonville Center
Wed 09:53:04 PM 31.4783 -81.9814 24° Northeast 469 540 39,000  Level Jacksonville Center
Wed 09:54:04 PM 31.6117 -81.9119 24° Northeast 474 545 39,000  Level Jacksonville Center
Wed 09:55:04 PM 31.7364 -81.8469 24° Northeast 474 545 39,000  Level Jacksonville Center
Wed 09:56:04 PM 31.8464 -81.7919 23° Northeast 479 551 39,000  Level Jacksonville Center
Wed 09:57:04 PM 31.9817 -81.7194 24° Northeast 479 551 39,000  Level Jacksonville Center
Wed 09:58:04 PM 32.0917 -81.6639 23° Northeast 479 551 39,000  Level Jacksonville Center
Wed 09:59:04 PM 32.2289 -81.5933 24° Northeast 479 551 39,000  Level Jacksonville Center
Wed 10:00:04 PM 32.3511 -81.5278 24° Northeast 479 551 39,000  Level Jacksonville Center
Wed 10:01:04 PM 32.4633 -81.4694 24° Northeast 479 551 39,000  Level Jacksonville Center
Wed 10:02:04 PM 32.5983 -81.3983 24° Northeast 479 551 39,000  Level Jacksonville Center
Wed 10:03:04 PM 32.7183 -81.3294 26° Northeast 479 551 39,000  Level Jacksonville Center
Wed 10:04:04 PM 32.8450 -81.2656 23° Northeast 479 551 39,000  Level Jacksonville Center
Wed 10:05:04 PM 32.9608 -81.1917 28° Northeast 474 545 39,000  Level Jacksonville Center
Wed 10:06:04 PM 33.0767 -81.1078 31° Northeast 474 545 39,000  Level Jacksonville Center
Wed 10:07:04 PM 33.1964 -81.0258 30° Northeast 479 551 39,000  Level Jacksonville Center
Wed 10:08:04 PM 33.3081 -80.9464 31° Northeast 479 551 39,000  Level Jacksonville Center
Wed 10:09:04 PM 33.4256 -80.8644 30° Northeast 479 551 39,000  Level Jacksonville Center
Wed 10:10:04 PM 33.5433 -80.7819 30° Northeast 479 551 39,000  Level Jacksonville Center
Wed 10:11:04 PM 33.6567 -80.6992 31° Northeast 479 551 39,000  Level Jacksonville Center
Wed 10:12:04 PM 33.7742 -80.6164 30° Northeast 479 551 39,000  Level Jacksonville Center
Wed 10:13:04 PM 33.8853 -80.5358 31° Northeast 479 551 39,000  Level Jacksonville Center
Wed 10:14:39 PM 34.0450 -80.4211 31° Northeast 456 525 39,000  Level Washington Center
Wed 10:15:39 PM 34.1567 -80.3397 31° Northeast 461 531 39,000  Level Washington Center
Wed 10:16:38 PM 34.2683 -80.2608 30° Northeast 458 527 39,000  Level Washington Center
Wed 10:17:39 PM 34.3822 -80.1742 32° Northeast 468 539 39,000  Level Washington Center
Wed 10:18:39 PM 34.4961 -80.0925 31° Northeast 468 539 39,000  Level Washington Center
Wed 10:19:40 PM 34.5928 -80.0194 32° Northeast 461 531 39,000  Level Washington Center
Wed 10:20:40 PM 34.7192 -79.9278 31° Northeast 466 536 39,000  Level Washington Center
Wed 10:21:38 PM 34.8283 -79.8503 30° Northeast 461 531 39,000  Level Washington Center
Wed 10:22:38 PM 34.9339 -79.7544 37° Northeast 461 531 39,000  Level Washington Center
Wed 10:23:39 PM 35.0394 -79.6608 36° Northeast 461 531 39,000  Level Washington Center
Wed 10:24:40 PM 35.1428 -79.5697 36° Northeast 466 536 39,000  Level Washington Center
Wed 10:25:41 PM 35.2458 -79.4756 37° Northeast 466 536 39,000  Level Washington Center
Wed 10:26:38 PM 35.3619 -79.3717 36° Northeast 466 536 39,000  Level Washington Center
Wed 10:27:39 PM 35.4564 -79.2894 35° Northeast 466 536 39,000  Level Washington Center
Wed 10:28:40 PM 35.5572 -79.1944 37° Northeast 466 536 39,000  Level Washington Center
Wed 10:29:40 PM 35.6667 -79.0919 37° Northeast 466 536 39,000  Level Washington Center
Wed 10:30:38 PM 35.7717 -78.9994 36° Northeast 466 536 39,000  Level Washington Center
Wed 10:31:38 PM 35.8722 -78.9064 37° Northeast 466 536 39,000  Level Washington Center
Wed 10:32:39 PM 35.9750 -78.8106 37° Northeast 466 536 39,000  Level Washington Center
Wed 10:33:40 PM 36.0778 -78.7197 36° Northeast 461 531 39,000  Level Washington Center
Wed 10:34:38 PM 36.1783 -78.6233 38° Northeast 461 531 39,000  Level Washington Center
Wed 10:35:39 PM 36.2808 -78.5294 36° Northeast 456 525 39,000  Level Washington Center
Wed 10:36:40 PM 36.3833 -78.4325 37° Northeast 456 525 39,000  Level Washington Center
Wed 10:37:38 PM 36.4833 -78.3406 36° Northeast 451 519 39,000  Level Washington Center
Wed 10:38:39 PM 36.5836 -78.2433 38° Northeast 451 519 39,000  Level Washington Center
Wed 10:39:39 PM 36.6644 -78.1683 37° Northeast 451 519 39,000  Level Washington Center
Wed 10:40:39 PM 36.7711 -78.0631 38° Northeast 451 519 39,000  Level Washington Center
Wed 10:41:40 PM 36.8731 -77.9675 37° Northeast 451 519 39,000  Level Washington Center
Wed 10:42:40 PM 36.9753 -77.8692 38° Northeast 456 525 39,000  Level Washington Center
Wed 10:43:38 PM 37.0731 -77.7758 37° Northeast 456 525 39,000  Level Washington Center
Wed 10:44:39 PM 37.1747 -77.6797 37° Northeast 451 519 39,000  Level Washington Center
Wed 10:45:40 PM 37.2744 -77.5806 38° Northeast 451 519 39,000  Level Washington Center
Wed 10:46:38 PM 37.3742 -77.4867 37° Northeast 451 519 39,000  Level Washington Center
Wed 10:47:38 PM 37.4714 -77.3894 38° Northeast 451 519 39,000  Level Washington Center
Wed 10:48:38 PM 37.5731 -77.2922 37° Northeast 451 519 39,000  Level Washington Center
Wed 10:49:41 PM 37.6703 -77.1947 38° Northeast 451 519 39,000  Level Washington Center
Wed 10:50:38 PM 37.7653 -77.1022 38° Northeast 445 512 39,000  Level Washington Center
Wed 10:51:39 PM 37.8625 -77.0069 38° Northeast 440 506 39,000  Level Washington Center
Wed 10:52:39 PM 37.9575 -76.9111 38° Northeast 440 506 39,000  Level Washington Center
Wed 10:53:40 PM 38.0522 -76.8181 38° Northeast 440 506 39,000  Level Washington Center
Wed 10:54:40 PM 38.1469 -76.7244 38° Northeast 435 501 39,000  Level Washington Center
Wed 10:55:38 PM 38.2417 -76.6281 39° Northeast 435 501 39,000  Level Washington Center
Wed 10:56:39 PM 38.3300 -76.5392 38° Northeast 428 493 39,000  Level Washington Center
Wed 10:57:40 PM 38.4225 -76.4478 38° Northeast 422 486 39,000  Level Washington Center
Wed 10:58:41 PM 38.5147 -76.3558 38° Northeast 422 486 39,000  Level Washington Center
Wed 10:59:38 PM 38.6050 -76.2611 39° Northeast 422 486 39,000  Level Washington Center
Wed 11:00:38 PM 38.7097 -76.1583 37° Northeast 429 494 39,000  Level Washington Center
Wed 11:01:39 PM 38.8039 -76.0686 37° Northeast 429 494 39,000  Level Washington Center
Wed 11:02:39 PM 38.8919 -75.9731 40° Northeast 424 488 39,000  Level Washington Center
Wed 11:03:40 PM 38.9839 -75.8800 38° Northeast 419 482 39,000  Level Washington Center
Wed 11:04:40 PM 39.0736 -75.7894 38° Northeast 419 482 39,000  Level Washington Center
Wed 11:05:38 PM 39.1633 -75.6961 39° Northeast 419 482 39,000  Level Washington Center
Wed 11:06:39 PM 39.2531 -75.6050 38° Northeast 413 475 39,000  Level Washington Center
Wed 11:07:38 PM 39.3425 -75.5111 39° Northeast 413 475 39,000  Level Washington Center
Wed 11:08:38 PM 39.4300 -75.4169 40° Northeast 413 475 39,000  Level Washington Center
Wed 11:10:16 PM 39.5797 -75.2636 38° Northeast 431 496 39,000  Level New York Center
Wed 11:11:18 PM 39.6689 -75.1697 39° Northeast 426 490 39,000  Level New York Center
Wed 11:12:17 PM 39.7753 -75.1061 25° Northeast 408 470 39,000  Level New York Center
Wed 11:13:17 PM 39.8833 -75.0586 19° North 408 470 39,000  Level New York Center
Wed 11:14:18 PM 39.9975 -75.0169 16° North 408 470 39,000  Level New York Center
Wed 11:15:18 PM 40.1056 -74.9692 19° North 408 470 39,000  Level New York Center
Wed 11:16:18 PM 40.1989 -74.9258 20° North 408 470 39,000  Level New York Center
Wed 11:17:18 PM 40.3086 -74.8808 17° North 403 464 39,000  Level New York Center
Wed 11:18:50 PM 40.4769 -74.8081 18° North 403 464 39,000  Level Boston Center
Wed 11:19:50 PM 40.5842 -74.7600 19° North 403 464 39,000  Level Boston Center
Wed 11:20:50 PM 40.6936 -74.7147 17° North 408 470 39,000  Level Boston Center
Wed 11:21:50 PM 40.8028 -74.6664 19° North 408 470 39,000  Level Boston Center
Wed 11:22:50 PM 40.9122 -74.6208 17° North 408 470 39,000  Level Boston Center
Wed 11:23:50 PM 41.0172 -74.5747 18° North 403 464 39,000  Level Boston Center
Wed 11:24:50 PM 41.1369 -74.5236 18° North 408 470 39,000 -450 Level Boston Center
Wed 11:25:50 PM 41.2442 -74.4747 19° North 408 470 38,100 -850 Descending Boston Center
Wed 11:26:50 PM 41.3533 -74.4339 16° North 408 470 37,300 -950 Descending Boston Center
Wed 11:27:50 PM 41.4519 -74.3844 21° North 395 455 36,200 -950 Descending Boston Center
Wed 11:28:50 PM 41.5592 -74.3406 17° North 389 448 35,400 -1,000 Descending Boston Center
Wed 11:29:50 PM 41.6661 -74.2936 18° North 394 453 34,200 -1,700 Descending Boston Center
Wed 11:30:50 PM 41.7689 -74.2494 18° North 388 447 32,000 -2,100 Descending Boston Center
Wed 11:31:50 PM 41.8550 -74.2100 19° North 369 425 30,000 -2,000 Descending Boston Center
Wed 11:32:50 PM 41.9517 -74.1681 18° North 369 425 28,000 -1,350 Descending Boston Center
Wed 11:33:50 PM 42.0236 -74.0861 40° Northeast 347 399 27,300 -850 Descending Boston Center
Wed 11:34:50 PM 42.0753 -73.9700 59° Northeast 339 390 26,300 -1,000 Descending Boston Center
Wed 11:35:50 PM 42.1247 -73.8536 60° Northeast 346 398 25,300 -1,000 Descending Boston Center
Wed 11:36:50 PM 42.1761 -73.7400 59° Northeast 346 398 24,300 -650 Descending Boston Center
Wed 11:37:50 PM 42.2339 -73.6039 60° Northeast 357 411 24,000 -150 Descending Boston Center
Wed 11:38:50 PM 42.2831 -73.4925 59° Northeast 357 411 24,000 -450 Level Boston Center
Wed 11:39:50 PM 42.3342 -73.3725 60° Northeast 357 411 23,100 -950 Descending Boston Center
Wed 11:40:50 PM 42.3808 -73.2608 60° Northeast 340 391 22,100 -1,000 Descending Boston Center
Wed 11:41:50 PM 42.4253 -73.1600 59° Northeast 335 386 21,100 -1,000 Descending Boston Center
Wed 11:42:50 PM 42.4717 -73.0536 59° Northeast 327 376 20,100 -1,000 Descending Boston Center
Wed 11:43:50 PM 42.5161 -72.9469 60° Northeast 327 376 19,100 -550 Descending Boston Center
Wed 11:44:50 PM 42.5581 -72.8517 59° Northeast 321 369 19,000 -50 Descending Boston Center
Wed 11:45:50 PM 42.6106 -72.7306 59° Northeast 331 381 19,000 -50 Level Boston Center
Wed 11:46:50 PM 42.6567 -72.6208 60° Northeast 331 381 18,900 -500 Descending Boston Center
Wed 11:47:50 PM 42.7025 -72.5136 60° Northeast 331 381 18,000 -1,550 Descending Boston Center
Wed 11:48:50 PM 42.7464 -72.4061 61° Northeast 326 375 15,800 -2,150 Descending Boston Center
Wed 11:49:50 PM 42.7900 -72.3014 60° Northeast 326 375 13,700 -1,950 Descending Boston Center
Wed 11:50:50 PM 42.8022 -72.1856 82° East 308 354 11,900 -1,650 Descending Boston Center
Wed 11:51:50 PM 42.7875 -72.0694 100° East 308 354 10,400 -1,136 Descending Boston Center
Wed 11:53:02 PM 42.7744 -71.9592 99° East 280 322 9,400 -1,136 Descending Boston Center
Wed 11:54:02 PM 42.7594 -71.8519 101° East 255 293 7,900 -1,400 Descending Boston Center
Wed 11:55:02 PM 42.7506 -71.7672 98° East 255 293 6,600 -1,300 Descending Boston Center
Wed 11:56:02 PM 42.7394 -71.6656 98° East 255 293 5,300 -1,250 Descending Boston Center
Wed 11:57:02 PM 42.7328 -71.5836 96° East 248 285 4,100 -750 Descending Boston Center
Wed 11:58:02 PM 42.7467 -71.4931 78° East 232 267 3,800 -500 Descending Boston Center
Wed 11:59:14 PM 42.7750 -71.4133 64° Northeast 197 227 3,000 -773 Descending Boston Center
Thu 12:00:14 AM 42.7997 -71.3647 55° Northeast 178 205 2,100 -600 Descending Boston Center
Thu 12:01:14 AM 42.8478 -71.3839 344° North 136 157 1,800 -500 Descending Boston Center
Thu 12:02:14 AM 42.8814 -71.4058 334° Northwest 152 175 1,100 11,100 Descending Boston Center
Thu 12:03:14 AM 42.9169 -71.4281 335° Northwest 152 175 24,000 11,450 Climbing Boston Center
Thu 12:04:14 AM 42.9589 -71.4586 332° Northwest 152 175 24,000  Level Boston Center

Login

Don't have an account? Register now (free) for customized features, flight alerts, and more!